Time;durP1;ratioP1;P1;durP2;ratioP2;P2;SDS_P1;SDS_P2;PMS_P1;PMS_P2;Temp;Humidity;BMP_temperature;BMP_pressure;BME280_temperature;BME280_humidity;BME280_pressure;Samples;Min_cycle;Max_cycle;Signal;HPM_P1;HPM_P2
2023/11/03 00:01:30;;;;;;;3.73;2.23;;;;;;;12.78;53.02;95890.47;7005548;28;20205;-89
2023/11/03 00:04:52;;;;;;;5.90;1.90;;;;;;;13.02;53.63;95961.59;7000762;28;20690;-89
2023/11/03 00:08:13;;;;;;;2.30;2.20;;;;;;;12.30;53.67;95878.88;7001335;28;20230;-89
2023/11/03 00:11:36;;;;;;;2.40;2.20;;;;;;;12.63;53.83;95887.97;7001141;28;20229;-90
2023/11/03 00:14:59;;;;;;;3.20;2.17;;;;;;;11.78;54.97;95843.78;7001515;28;20206;-90
2023/11/03 00:18:21;;;;;;;3.10;2.30;;;;;;;12.53;54.43;95926.72;7001573;28;20559;-90
2023/11/03 00:21:43;;;;;;;2.60;2.40;;;;;;;12.99;53.62;95945.97;7001514;28;20202;-89
2023/11/03 00:25:11;;;;;;;2.63;2.40;;;;;;;12.72;53.43;95899.75;7001030;28;20202;-91
2023/11/03 00:28:33;;;;;;;2.37;2.17;;;;;;;12.28;53.25;95823.53;7000757;28;20593;-89
2023/11/03 00:31:56;;;;;;;2.60;2.30;;;;;;;11.74;55.54;95869.72;7001061;28;20233;-89
2023/11/03 00:35:18;;;;;;;3.30;2.07;;;;;;;11.54;57.49;95937.31;7000663;28;20193;-89
2023/11/03 00:38:43;;;;;;;2.27;2.00;;;;;;;10.14;59.46;95827.53;7000764;28;20236;-91
2023/11/03 00:42:04;;;;;;;5.53;2.40;;;;;;;9.85;60.26;95796.91;7001509;28;20645;-91
2023/11/03 00:45:26;;;;;;;6.17;2.40;;;;;;;10.18;58.93;95795.47;7001346;28;20680;-90
2023/11/03 00:48:49;;;;;;;2.67;2.30;;;;;;;11.41;57.37;95940.63;7342080;22;20237;-90
2023/11/03 00:52:11;;;;;;;5.37;2.27;;;;;;;11.90;56.77;95941.38;7028352;28;20310;-90
2023/11/03 00:55:32;;;;;;;2.80;2.60;;;;;;;12.32;55.03;95940.72;7028746;28;20747;-90
2023/11/03 00:58:54;;;;;;;4.17;2.30;;;;;;;12.18;55.24;95942.47;7052547;22;20267;-90
2023/11/03 01:02:16;;;;;;;2.60;2.40;;;;;;;11.44;56.57;95885.28;7027833;28;20209;-92
2023/11/03 01:05:39;;;;;;;3.10;1.90;;;;;;;11.12;59.01;95938.91;7027907;28;20241;-91
2023/11/03 01:09:01;;;;;;;5.43;2.30;;;;;;;11.34;56.07;95939.31;7027450;28;20215;-90
2023/11/03 01:12:23;;;;;;;3.00;2.27;;;;;;;10.82;56.63;95856.34;7028005;28;20253;-90
2023/11/03 01:15:48;;;;;;;6.77;2.90;;;;;;;10.18;59.06;95916.63;7030587;28;20193;-92
2023/11/03 01:23:54;;;;;;;2.37;2.17;;;;;;;11.33;57.03;95976.25;6951372;28;20297;-91
2023/11/03 01:31:50;;;;;;;9.10;2.80;;;;;;;10.43;59.48;95989.25;7076974;22;20334;-91
2023/11/03 01:35:28;;;;;;;3.90;2.50;;;;;;;10.07;59.58;95874.66;7018207;28;20235;-92
2023/11/03 01:39:08;;;;;;;6.83;2.37;;;;;;;10.74;59.16;95994.31;7005294;28;20230;-91
2023/11/03 01:42:33;;;;;;;2.90;2.63;;;;;;;10.85;58.21;95938.47;7007530;28;20215;-90
2023/11/03 01:50:19;;;;;;;3.97;2.50;;;;;;;10.59;58.11;95988.97;7003292;28;20589;-91
2023/11/03 02:33:23;;;;;;;;;;;;;;;;;;;;;
2023/11/03 03:17:04;;;;;;;;;;;;;;;;;;;;;
2023/11/03 03:55:41;;;;;;;;;;;;;;;;;;;;;
2023/11/03 04:43:22;;;;;;;7.30;3.07;;;;;;;10.14;61.19;95993.59;6495045;30;20724;-90
2023/11/03 05:13:06;;;;;;;4.03;2.70;;;;;;;10.01;62.18;95973.41;6539610;29;20248;-91
2023/11/03 05:21:19;;;;;;;4.83;2.97;;;;;;;11.18;60.17;96006.03;6811955;29;20316;-90
2023/11/03 05:29:24;;;;;;;5.27;2.93;;;;;;;10.80;60.20;95978.94;6762923;29;20226;-88
2023/11/03 05:32:51;;;;;;;5.13;3.47;;;;;;;10.72;61.00;95980.31;6760526;29;20275;-87
2023/11/03 05:36:13;;;;;;;3.37;2.93;;;;;;;11.00;60.32;95970.78;6757712;29;20214;-85
2023/11/03 05:39:34;;;;;;;5.70;3.03;;;;;;;11.15;59.70;95962.63;6822767;28;20365;-86
2023/11/03 05:42:56;;;;;;;4.13;2.80;;;;;;;10.77;60.44;95960.63;6864426;28;20252;-86
2023/11/03 05:50:11;;;;;;;5.20;2.80;;;;;;;10.90;58.32;95912.34;6853235;28;20233;-84
2023/11/03 05:53:33;;;;;;;3.43;2.70;;;;;;;11.43;58.22;95964.59;6864044;28;20239;-85
2023/11/03 05:56:54;;;;;;;8.23;2.97;;;;;;;11.02;58.71;95947.03;6863652;28;20216;-86
2023/11/03 06:00:21;;;;;;;3.77;3.00;;;;;;;10.85;59.64;95965.44;6881117;28;20230;-90
2023/11/03 06:03:44;;;;;;;3.73;2.47;;;;;;;11.58;58.28;96007.69;6950247;28;20199;-87
2023/11/03 06:16:09;;;;;;;3.53;2.40;;;;;;;11.65;54.86;95995.53;6951204;28;20205;-86
2023/11/03 06:20:10;;;;;;;3.80;2.23;;;;;;;12.20;54.94;96062.63;6952815;28;20219;-88
2023/11/03 06:23:32;;;;;;;3.23;2.13;;;;;;;12.05;54.38;96010.66;6951558;28;20715;-86
2023/11/03 06:26:58;;;;;;;4.97;2.30;;;;;;;12.51;53.75;96057.81;6948471;28;20715;-88
2023/11/03 06:30:20;;;;;;;3.13;2.13;;;;;;;12.56;53.75;96055.84;6950980;28;20234;-87
2023/11/03 06:33:51;;;;;;;5.23;1.90;;;;;;;12.54;53.29;96044.53;6949281;28;20219;-87
2023/11/03 06:37:14;;;;;;;2.90;2.00;;;;;;;12.52;53.41;96054.81;6950724;28;20210;-89
2023/11/03 06:40:35;;;;;;;5.30;2.83;;;;;;;12.68;53.62;96069.00;6946638;28;21007;-84
2023/11/03 06:43:57;;;;;;;3.83;2.40;;;;;;;12.29;53.02;96004.25;6923627;28;20347;-84
2023/11/03 06:55:56;;;;;;;4.00;2.50;;;;;;;12.52;54.35;96100.75;6890194;28;20188;-91
2023/11/03 06:59:17;;;;;;;6.70;2.43;;;;;;;12.54;53.13;96059.94;6891437;28;20224;-90
2023/11/03 07:02:39;;;;;;;5.27;2.20;;;;;;;12.87;52.47;96094.22;6888568;28;20301;-87
2023/11/03 07:18:41;;;;;;;3.63;2.00;;;;;;;12.29;52.35;96011.53;6896995;28;20220;-88
2023/11/03 07:26:31;;;;;;;4.80;2.60;;;;;;;12.22;51.72;96009.13;6951948;28;20214;-88
2023/11/03 07:30:16;;;;;;;2.57;1.90;;;;;;;12.01;51.61;96006.88;6951751;28;20222;-88
2023/11/03 07:33:41;;;;;;;4.03;2.27;;;;;;;12.38;50.69;96015.22;6949709;28;20231;-88
2023/11/03 07:37:03;;;;;;;4.90;2.50;;;;;;;13.47;49.96;96128.81;6974943;28;20342;-88
2023/11/03 07:40:24;;;;;;;3.57;2.10;;;;;;;12.53;51.12;96058.31;6994106;28;20207;-88
2023/11/03 07:43:46;;;;;;;3.13;2.30;;;;;;;12.88;49.48;96030.94;6966093;28;20589;-89
2023/11/03 07:47:09;;;;;;;4.57;2.20;;;;;;;13.43;49.22;96125.03;6975379;28;20198;-88
2023/11/03 07:50:33;;;;;;;4.53;2.40;;;;;;;12.58;49.98;96007.72;6974027;28;20202;-89
2023/11/03 07:53:55;;;;;;;5.60;2.40;;;;;;;13.39;50.11;96097.75;6973883;28;20227;-89
2023/11/03 07:57:16;;;;;;;3.90;2.87;;;;;;;13.55;50.04;96142.50;6968995;28;20217;-89
2023/11/03 08:00:38;;;;;;;5.63;2.70;;;;;;;12.65;50.63;96061.47;6974558;28;20206;-88
2023/11/03 08:03:59;;;;;;;3.87;2.50;;;;;;;12.90;50.90;96061.22;6975613;28;20688;-88
2023/11/03 08:07:22;;;;;;;3.40;2.10;;;;;;;13.41;50.59;96155.13;6975034;28;20222;-89
2023/11/03 08:10:44;;;;;;;5.07;2.40;;;;;;;13.19;51.07;96162.09;6975905;28;20214;-88
2023/11/03 08:14:06;;;;;;;4.80;2.40;;;;;;;13.13;51.05;96109.97;6975317;28;20246;-89
2023/11/03 08:17:28;;;;;;;4.27;2.17;;;;;;;12.93;51.46;96120.94;6974569;28;20237;-88
2023/11/03 08:20:50;;;;;;;4.43;2.30;;;;;;;12.35;51.87;96040.94;6974635;28;20617;-90
2023/11/03 08:24:13;;;;;;;3.47;2.17;;;;;;;13.38;51.15;96123.22;6973641;28;20206;-88
2023/11/03 08:27:37;;;;;;;7.50;2.70;;;;;;;13.35;51.43;96139.22;6974668;28;20231;-88
2023/11/03 08:30:59;;;;;;;5.87;2.50;;;;;;;12.64;51.74;96079.56;6974185;28;20209;-88
2023/11/03 08:34:26;;;;;;;2.70;2.20;;;;;;;13.59;50.60;96157.09;6974368;28;20222;-88
2023/11/03 08:37:48;;;;;;;3.37;2.30;;;;;;;12.89;52.42;96168.56;6974581;28;20233;-88
2023/11/03 08:41:11;;;;;;;2.93;2.00;;;;;;;13.13;51.36;96136.19;6974176;28;20206;-89
2023/11/03 08:53:51;;;;;;;2.63;2.17;;;;;;;12.79;50.96;96086.72;7050680;27;20553;-88
2023/11/03 08:57:17;;;;;;;5.53;2.20;;;;;;;12.79;51.24;96070.50;7016510;28;20666;-88
2023/11/03 09:00:44;;;;;;;7.27;2.10;;;;;;;13.04;50.17;96078.41;7049472;28;20333;-88
2023/11/03 09:04:14;;;;;;;5.00;2.20;;;;;;;12.98;50.52;96141.75;7050333;27;20276;-88
2023/11/03 09:07:40;;;;;;;4.03;2.40;;;;;;;13.17;50.79;96129.91;7050425;27;20315;-88
2023/11/03 09:11:10;;;;;;;3.37;2.50;;;;;;;13.08;50.97;96128.13;7050279;27;20229;-88
2023/11/03 09:14:42;;;;;;;4.57;2.30;;;;;;;12.92;50.43;96078.75;7050369;27;20299;-88
2023/11/03 09:29:31;;;;;;;5.57;2.93;;;;;;;13.68;50.89;96195.16;6964566;28;20234;-88
2023/11/03 09:32:53;;;;;;;4.87;2.43;;;;;;;14.09;49.78;96193.59;6966320;28;20222;-88
2023/11/03 09:36:15;;;;;;;5.07;2.40;;;;;;;13.00;50.37;96047.63;6966813;28;20567;-88
2023/11/03 09:39:52;;;;;;;6.43;2.93;;;;;;;13.54;50.30;96121.94;6965265;28;20226;-89
2023/11/03 09:43:14;;;;;;;11.63;5.77;;;;;;;13.71;50.69;96175.63;6914931;28;20290;-88
2023/11/03 09:46:38;;;;;;;5.03;3.20;;;;;;;14.74;48.98;96212.47;6907100;28;20206;-87
2023/11/03 09:49:59;;;;;;;2.90;2.23;;;;;;;15.11;47.75;96207.00;6907708;28;20281;-85
2023/11/03 09:53:25;;;;;;;3.27;2.77;;;;;;;14.95;48.08;96204.84;6907815;28;20232;-85
2023/11/03 09:56:48;;;;;;;5.23;2.20;;;;;;;14.78;48.23;96197.25;6907936;28;20261;-88
2023/11/03 10:00:16;;;;;;;3.53;2.10;;;;;;;14.39;49.70;96212.19;6934680;28;20254;-87
2023/11/03 10:03:39;;;;;;;9.23;4.33;;;;;;;14.81;49.01;96198.56;6922996;28;20220;-87
2023/11/03 10:07:01;;;;;;;3.37;2.20;;;;;;;14.02;48.84;96109.13;6912458;28;20258;-86
2023/11/03 10:10:22;;;;;;;2.20;2.00;;;;;;;14.86;48.67;96190.34;6877542;28;20298;-86
2023/11/03 10:13:44;;;;;;;3.13;2.10;;;;;;;14.95;48.67;96186.66;6889086;28;20282;-86
2023/11/03 10:17:09;;;;;;;3.00;2.30;;;;;;;14.90;48.56;96184.03;6862369;28;20299;-88
2023/11/03 10:20:32;;;;;;;2.80;2.10;;;;;;;15.26;47.90;96165.25;6901534;28;20219;-86
2023/11/03 10:23:56;;;;;;;4.67;2.50;;;;;;;14.56;47.95;96098.59;6933427;28;20234;-91
2023/11/03 10:27:20;;;;;;;2.80;2.00;;;;;;;15.11;48.29;96179.09;6929158;28;20292;-87
2023/11/03 10:30:43;;;;;;;2.53;1.80;;;;;;;15.03;48.19;96182.47;6936257;28;20585;-87
2023/11/03 10:34:05;;;;;;;5.07;2.10;;;;;;;15.17;48.11;96164.31;6934852;28;20643;-85
2023/11/03 10:37:28;;;;;;;1.93;1.67;;;;;;;14.74;47.48;96130.34;6939275;28;20306;-86
2023/11/03 10:40:51;;;;;;;2.70;2.37;;;;;;;13.82;48.77;96114.84;6965384;28;20203;-84
2023/11/03 10:44:14;;;;;;;3.17;2.00;;;;;;;13.90;48.22;96093.34;6922241;28;20651;-84
2023/11/03 10:47:39;;;;;;;1.93;1.80;;;;;;;15.23;47.65;96193.78;6954271;28;20232;-84
2023/11/03 10:51:05;;;;;;;3.83;2.23;;;;;;;14.24;48.17;96095.84;6954149;28;20697;-84
2023/11/03 10:54:34;;;;;;;2.77;2.17;;;;;;;15.30;47.42;96150.78;6947314;28;20214;-84
2023/11/03 10:57:57;;;;;;;3.70;2.13;;;;;;;14.68;46.61;96088.91;6947282;28;20257;-85
2023/11/03 11:01:22;;;;;;;2.83;2.33;;;;;;;15.19;46.39;96170.25;6951015;28;20211;-84
2023/11/03 11:04:50;;;;;;;3.77;2.33;;;;;;;15.18;46.56;96157.78;6947017;28;20222;-85
2023/11/03 11:08:12;;;;;;;2.83;2.37;;;;;;;14.79;47.93;96168.19;6943238;28;20226;-85
2023/11/03 11:11:37;;;;;;;2.97;2.67;;;;;;;15.09;47.07;96165.00;6947038;28;20226;-83
2023/11/03 11:15:05;;;;;;;4.63;2.50;;;;;;;15.34;46.51;96183.59;6947215;28;20206;-85
2023/11/03 11:18:30;;;;;;;3.07;2.40;;;;;;;14.82;47.36;96173.06;6961635;28;20588;-84
2023/11/03 11:21:53;;;;;;;3.93;1.60;;;;;;;15.31;46.01;96167.88;6974524;28;20210;-86
2023/11/03 11:25:15;;;;;;;3.37;1.90;;;;;;;15.58;45.60;96178.81;6968344;28;20664;-84
2023/11/03 11:28:39;;;;;;;3.93;1.80;;;;;;;15.20;46.67;96174.56;6954767;28;20258;-84
2023/11/03 11:32:08;;;;;;;1.67;1.57;;;;;;;14.93;46.79;96171.78;6964321;28;20245;-85
2023/11/03 11:35:38;;;;;;;1.60;1.50;;;;;;;14.77;45.74;96105.31;6950344;28;20222;-86
2023/11/03 11:39:01;;;;;;;1.70;1.60;;;;;;;14.64;47.23;96146.75;6938197;28;20529;-85
2023/11/03 11:42:23;;;;;;;1.60;1.50;;;;;;;15.24;46.22;96164.75;6944439;28;20203;-85
2023/11/03 11:45:45;;;;;;;1.53;1.40;;;;;;;15.20;46.54;96182.72;6946961;28;20207;-85
2023/11/03 11:49:12;;;;;;;3.07;1.70;;;;;;;15.16;46.27;96154.59;6945889;28;20230;-85
2023/11/03 11:52:37;;;;;;;1.57;1.30;;;;;;;15.31;45.45;96176.81;6948423;28;20227;-86
2023/11/03 11:55:58;;;;;;;1.63;1.53;;;;;;;15.69;45.37;96186.47;6939029;28;20297;-88
2023/11/03 11:59:21;;;;;;;2.17;1.57;;;;;;;15.54;46.28;96177.78;6941662;28;20263;-85
2023/11/03 12:02:48;;;;;;;1.83;1.60;;;;;;;15.40;46.21;96182.41;6947279;28;20289;-85
2023/11/03 12:06:10;;;;;;;1.87;1.60;;;;;;;15.22;46.28;96181.31;6954972;28;20221;-85
2023/11/03 12:09:36;;;;;;;2.83;1.73;;;;;;;14.94;46.41;96097.44;6946226;28;20364;-85
2023/11/03 12:12:59;;;;;;;2.27;1.70;;;;;;;15.20;46.32;96178.09;6949206;28;20301;-85
2023/11/03 12:16:20;;;;;;;2.60;2.00;;;;;;;15.52;45.09;96152.88;6967549;28;20302;-85
2023/11/03 12:19:44;;;;;;;1.50;1.40;;;;;;;15.17;46.61;96169.75;6946499;28;20290;-85
2023/11/03 12:23:05;;;;;;;2.30;1.83;;;;;;;15.62;45.76;96168.97;6949124;28;20208;-87
2023/11/03 12:26:27;;;;;;;5.07;1.60;;;;;;;15.51;45.99;96156.69;6947774;28;20357;-87
2023/11/03 12:29:49;;;;;;;2.30;1.40;;;;;;;15.37;46.58;96172.13;6955463;28;20261;-87
2023/11/03 12:33:11;;;;;;;3.83;2.57;;;;;;;15.64;45.90;96177.63;6946211;28;20285;-86
2023/11/03 12:36:34;;;;;;;2.07;1.97;;;;;;;15.71;45.94;96172.59;6948118;28;20728;-85
2023/11/03 12:39:57;;;;;;;2.87;1.60;;;;;;;15.78;46.25;96168.38;6956188;28;20269;-89
2023/11/03 12:43:19;;;;;;;4.50;1.90;;;;;;;15.95;45.23;96173.19;6945970;28;20337;-85
2023/11/03 12:46:47;;;;;;;4.07;2.10;;;;;;;16.16;45.02;96180.63;6963111;28;20199;-85
2023/11/03 12:50:10;;;;;;;3.53;3.13;;;;;;;16.02;44.70;96179.03;6937614;28;20308;-85
2023/11/03 12:53:45;;;;;;;17.20;11.67;;;;;;;15.75;44.80;96181.75;6941134;28;20231;-85
2023/11/03 12:57:07;;;;;;;15.07;10.60;;;;;;;15.59;45.13;96175.81;6951632;28;20285;-85
2023/11/03 13:00:31;;;;;;;3.00;2.60;;;;;;;15.46;44.63;96175.78;6947435;28;20219;-85
2023/11/03 13:03:53;;;;;;;4.00;2.60;;;;;;;15.62;45.04;96182.56;6959100;28;20214;-85
2023/11/03 13:07:14;;;;;;;4.00;3.33;;;;;;;15.73;45.06;96192.91;6952193;28;20210;-85
2023/11/03 13:10:40;;;;;;;2.87;2.33;;;;;;;15.65;44.97;96201.75;6949323;28;20226;-87
2023/11/03 13:14:01;;;;;;;2.40;2.20;;;;;;;15.56;44.98;96192.69;6958440;28;20644;-85
2023/11/03 13:17:23;;;;;;;2.90;2.70;;;;;;;15.68;45.52;96184.06;6947393;28;20231;-85
2023/11/03 13:20:45;;;;;;;3.60;2.07;;;;;;;15.60;45.44;96192.88;6951153;28;20318;-85
2023/11/03 13:24:12;;;;;;;3.87;2.30;;;;;;;15.74;44.89;96188.28;6941414;28;20290;-85
2023/11/03 13:27:35;;;;;;;5.83;2.63;;;;;;;15.76;44.92;96197.72;6956724;28;20234;-85
2023/11/03 13:30:57;;;;;;;3.07;2.40;;;;;;;15.71;44.57;96216.88;6935940;28;20715;-87
2023/11/03 13:34:18;;;;;;;2.40;2.20;;;;;;;16.10;43.97;96208.22;6957427;28;20231;-84
2023/11/03 13:37:40;;;;;;;3.53;2.13;;;;;;;15.99;43.87;96210.31;6956184;28;20271;-88
2023/11/03 13:41:02;;;;;;;2.50;2.30;;;;;;;16.01;43.85;96223.63;6948620;28;20205;-84
2023/11/03 13:44:25;;;;;;;2.43;2.23;;;;;;;15.74;44.20;96223.59;6954215;28;20209;-84
2023/11/03 13:47:48;;;;;;;1.93;1.80;;;;;;;15.45;44.51;96225.75;6961608;28;20226;-85
2023/11/03 13:51:10;;;;;;;2.43;1.70;;;;;;;15.86;44.15;96235.56;6950810;28;20254;-86
2023/11/03 13:54:31;;;;;;;1.90;1.80;;;;;;;15.16;45.23;96208.84;6953494;28;20250;-87
2023/11/03 13:57:55;;;;;;;2.27;1.63;;;;;;;15.75;44.43;96242.31;6950618;28;20271;-84
2023/11/03 14:01:18;;;;;;;1.80;1.70;;;;;;;15.49;44.08;96246.59;6949888;28;20207;-84
2023/11/03 14:04:40;;;;;;;2.97;1.80;;;;;;;15.62;43.48;96255.88;6952948;28;20214;-84
2023/11/03 14:08:01;;;;;;;2.17;1.80;;;;;;;15.49;44.02;96262.06;6952398;28;20239;-90
2023/11/03 14:11:24;;;;;;;2.13;1.90;;;;;;;15.26;44.81;96261.06;6945175;28;20291;-82
2023/11/03 14:14:45;;;;;;;2.50;1.70;;;;;;;15.39;45.92;96273.09;6947052;28;20217;-84
2023/11/03 14:18:08;;;;;;;1.93;1.77;;;;;;;15.74;44.64;96273.28;6948669;28;20707;-83
2023/11/03 14:21:29;;;;;;;3.47;1.90;;;;;;;15.72;45.01;96289.09;6943501;28;20823;-83
2023/11/03 14:24:51;;;;;;;3.33;2.20;;;;;;;14.92;46.08;96217.09;6947769;28;20210;-83
2023/11/03 14:28:14;;;;;;;6.87;1.90;;;;;;;15.55;45.50;96288.84;6944072;28;20314;-84
2023/11/03 14:31:39;;;;;;;2.00;1.80;;;;;;;15.65;45.19;96293.28;6950210;28;20568;-83
2023/11/03 14:35:04;;;;;;;4.63;2.40;;;;;;;15.40;45.72;96299.16;6939827;28;20207;-83
2023/11/03 14:38:26;;;;;;;2.63;2.00;;;;;;;15.16;46.32;96295.69;6947911;28;20230;-83
2023/11/03 14:41:47;;;;;;;3.93;2.10;;;;;;;15.37;46.25;96286.16;6946985;28;20723;-83
2023/11/03 14:45:10;;;;;;;5.17;2.20;;;;;;;15.48;46.22;96307.44;6950773;28;20287;-83
2023/11/03 14:48:32;;;;;;;2.80;2.10;;;;;;;15.32;46.07;96311.47;6953054;28;20251;-84
2023/11/03 14:51:56;;;;;;;6.00;4.60;;;;;;;15.04;46.58;96315.13;6947888;28;20601;-84
2023/11/03 14:55:18;;;;;;;4.73;3.30;;;;;;;15.20;46.08;96308.38;6947697;28;20212;-83
2023/11/03 14:58:39;;;;;;;4.27;2.00;;;;;;;15.68;45.39;96309.78;6947175;28;20223;-84
2023/11/03 15:02:03;;;;;;;2.10;2.00;;;;;;;15.73;45.52;96323.31;6948297;28;20219;-83
2023/11/03 15:05:24;;;;;;;12.53;10.33;;;;;;;15.79;44.95;96324.00;6941061;28;20207;-83
2023/11/03 15:08:50;;;;;;;4.93;3.73;;;;;;;15.53;45.94;96339.13;6954227;28;20683;-81
2023/11/03 15:12:12;;;;;;;2.97;2.27;;;;;;;15.29;47.31;96332.94;6937965;28;20212;-83
2023/11/03 15:15:37;;;;;;;14.07;3.07;;;;;;;15.44;47.71;96340.88;6939289;28;20226;-83
2023/11/03 15:18:59;;;;;;;2.83;1.93;;;;;;;14.96;49.40;96348.34;6954164;28;20226;-81
2023/11/03 15:22:21;;;;;;;3.20;1.67;;;;;;;14.86;50.50;96342.25;6947743;28;20280;-84
2023/11/03 15:25:44;;;;;;;2.80;1.93;;;;;;;14.68;50.24;96332.97;6942553;28;20252;-83
2023/11/03 15:29:06;;;;;;;2.97;1.80;;;;;;;14.89;50.47;96353.34;6949429;28;20234;-86
2023/11/03 15:32:27;;;;;;;2.10;2.00;;;;;;;14.72;51.18;96327.78;6957270;28;20317;-84
2023/11/03 15:35:49;;;;;;;2.50;2.30;;;;;;;14.53;51.86;96297.94;6950894;28;20329;-84
2023/11/03 15:39:25;;;;;;;4.00;1.90;;;;;;;14.25;52.31;96330.50;6951123;28;20242;-86
2023/11/03 15:42:48;;;;;;;2.90;2.27;;;;;;;14.73;52.32;96378.22;6954822;28;20209;-85
2023/11/03 15:46:10;;;;;;;5.43;2.67;;;;;;;14.08;54.47;96387.03;6951546;28;20686;-89
2023/11/03 15:49:32;;;;;;;5.00;2.60;;;;;;;13.99;55.12;96386.81;6951602;28;20590;-85
2023/11/03 15:52:54;;;;;;;5.50;2.77;;;;;;;13.81;55.60;96394.88;6951166;28;20223;-85
2023/11/03 15:56:15;;;;;;;3.03;2.50;;;;;;;13.72;56.57;96397.38;6951623;28;20243;-85
2023/11/03 15:59:38;;;;;;;3.27;2.50;;;;;;;14.02;56.14;96388.97;6953167;28;20697;-86
2023/11/03 16:03:00;;;;;;;6.70;2.70;;;;;;;14.07;56.55;96393.53;6963946;28;20532;-86
2023/11/03 16:06:21;;;;;;;6.00;2.77;;;;;;;13.99;56.13;96402.28;6953422;28;20215;-85
2023/11/03 16:09:43;;;;;;;4.63;3.40;;;;;;;14.22;56.02;96417.81;6951010;28;20310;-87
2023/11/03 16:13:04;;;;;;;3.23;2.80;;;;;;;13.85;56.35;96425.69;6945452;28;20218;-84
2023/11/03 16:16:27;;;;;;;6.83;2.60;;;;;;;13.41;57.13;96425.75;6962570;28;20215;-85
2023/11/03 16:19:49;;;;;;;2.90;2.70;;;;;;;13.54;57.61;96430.53;6936484;28;20346;-84
2023/11/03 16:23:10;;;;;;;7.57;4.20;;;;;;;13.90;56.91;96444.59;6965582;28;20920;-85
2023/11/03 16:26:32;;;;;;;6.43;3.40;;;;;;;13.38;58.69;96436.31;6958734;28;20222;-85
2023/11/03 16:29:57;;;;;;;6.00;3.57;;;;;;;13.91;57.57;96436.19;6940222;28;20235;-85
2023/11/03 16:33:19;;;;;;;5.47;3.90;;;;;;;14.37;55.91;96440.16;6943537;28;20230;-85
2023/11/03 16:36:41;;;;;;;5.00;2.90;;;;;;;13.67;56.07;96355.97;6961127;28;20214;-84
2023/11/03 16:40:04;;;;;;;5.27;2.63;;;;;;;14.33;55.76;96443.75;6953669;28;20227;-85
2023/11/03 16:43:26;;;;;;;3.07;2.40;;;;;;;13.90;55.57;96417.53;6953559;28;20207;-86
2023/11/03 16:46:47;;;;;;;2.13;1.90;;;;;;;14.06;54.92;96448.81;6946828;28;20199;-87
2023/11/03 16:50:11;;;;;;;3.87;2.30;;;;;;;13.79;56.23;96452.00;6929831;28;20306;-87
2023/11/03 16:53:33;;;;;;;2.33;2.10;;;;;;;13.82;56.18;96451.47;6933707;28;20602;-85
2023/11/03 16:56:55;;;;;;;6.90;2.60;;;;;;;13.58;55.18;96425.38;6941712;28;20238;-84
2023/11/03 17:00:17;;;;;;;4.13;2.73;;;;;;;13.76;56.13;96446.34;6956014;28;20222;-87
2023/11/03 17:03:38;;;;;;;3.17;2.60;;;;;;;13.34;58.38;96456.91;6941022;28;20235;-86
2023/11/03 17:07:01;;;;;;;4.50;2.30;;;;;;;14.09;55.53;96453.69;6936502;28;20357;-87
2023/11/03 17:10:23;;;;;;;4.70;2.40;;;;;;;13.74;55.49;96462.88;6952615;28;20213;-87
2023/11/03 17:13:44;;;;;;;5.47;2.70;;;;;;;13.52;56.54;96457.06;6957454;28;20367;-83
2023/11/03 17:17:07;;;;;;;5.03;4.23;;;;;;;13.68;57.39;96447.75;6954318;28;20230;-86
2023/11/03 17:20:28;;;;;;;4.63;4.07;;;;;;;13.90;56.22;96458.16;6935921;28;20584;-88
2023/11/03 17:23:52;;;;;;;5.33;4.00;;;;;;;13.83;54.91;96449.53;6964204;28;20203;-84
2023/11/03 17:27:13;;;;;;;5.00;4.30;;;;;;;13.49;56.19;96476.56;6948398;28;20221;-89
2023/11/03 17:30:36;;;;;;;4.97;4.10;;;;;;;13.71;56.11;96481.59;6949103;28;20234;-89
2023/11/03 17:33:58;;;;;;;5.40;3.90;;;;;;;13.41;56.67;96469.06;6947334;28;20231;-87
2023/11/03 17:37:22;;;;;;;7.87;5.67;;;;;;;13.25;57.64;96488.34;6949785;28;20211;-87
2023/11/03 17:40:45;;;;;;;9.50;4.97;;;;;;;13.37;57.56;96478.81;6963791;28;20211;-82
2023/11/03 17:44:07;;;;;;;9.27;4.97;;;;;;;13.04;58.33;96479.50;6930482;28;20246;-91
2023/11/03 17:47:29;;;;;;;4.93;3.03;;;;;;;12.95;58.56;96477.63;6945334;28;20231;-86
2023/11/03 17:50:50;;;;;;;12.37;10.53;;;;;;;13.16;58.01;96461.03;6956643;28;20692;-87
2023/11/03 17:54:12;;;;;;;3.83;2.50;;;;;;;13.18;57.28;96490.53;6965720;28;20322;-87
2023/11/03 17:57:35;;;;;;;3.47;3.10;;;;;;;12.83;58.32;96482.53;6966215;28;20250;-93
2023/11/03 18:00:57;;;;;;;4.43;2.80;;;;;;;13.28;57.15;96482.38;6965971;28;20297;-89
2023/11/03 18:04:19;;;;;;;3.30;3.00;;;;;;;13.00;57.01;96489.28;6976320;28;20207;-88
2023/11/03 18:07:41;;;;;;;3.77;2.63;;;;;;;13.13;56.93;96494.09;6977848;28;20222;-87
2023/11/03 18:11:02;;;;;;;5.57;3.07;;;;;;;13.27;56.08;96492.38;6950666;28;20269;-87
2023/11/03 18:14:25;;;;;;;3.40;2.80;;;;;;;13.04;56.70;96484.91;6933370;28;20235;-89
2023/11/03 18:17:47;;;;;;;3.50;2.80;;;;;;;13.00;56.63;96488.44;6944304;28;20267;-88
2023/11/03 18:21:09;;;;;;;3.93;3.20;;;;;;;12.69;57.61;96489.59;6946566;28;20202;-88
2023/11/03 18:24:31;;;;;;;3.70;3.00;;;;;;;12.92;56.88;96494.41;6945699;28;20695;-89
2023/11/03 18:27:53;;;;;;;3.90;3.07;;;;;;;12.83;56.94;96469.00;6943185;28;20239;-87
2023/11/03 18:31:16;;;;;;;3.67;3.33;;;;;;;12.33;56.88;96396.19;6947960;28;20344;-84
2023/11/03 18:34:39;;;;;;;3.87;2.80;;;;;;;13.00;56.51;96504.69;6945418;28;20712;-87
2023/11/03 18:38:12;;;;;;;4.17;2.97;;;;;;;12.29;56.64;96433.75;6944954;28;20262;-90
2023/11/03 18:41:34;;;;;;;3.80;3.00;;;;;;;12.88;56.63;96504.16;6938931;28;20237;-88
2023/11/03 18:44:56;;;;;;;3.33;2.93;;;;;;;12.85;56.52;96496.56;6944558;28;20206;-88
2023/11/03 18:48:19;;;;;;;4.83;3.47;;;;;;;12.72;56.12;96464.72;6945016;28;20719;-90
2023/11/03 18:51:40;;;;;;;3.23;3.03;;;;;;;13.14;55.37;96494.88;6945871;28;20214;-89
2023/11/03 18:55:24;;;;;;;5.23;3.17;;;;;;;12.74;55.25;96406.56;6944538;28;20227;-89
2023/11/03 18:58:46;;;;;;;4.60;3.57;;;;;;;12.39;55.68;96390.47;6937637;28;20279;-87
2023/11/03 19:02:07;;;;;;;5.57;3.80;;;;;;;12.76;55.68;96461.16;6944929;28;20226;-89
2023/11/03 19:05:30;;;;;;;3.93;3.23;;;;;;;12.54;55.70;96436.41;6944588;28;20210;-87
2023/11/03 19:08:52;;;;;;;6.93;3.83;;;;;;;12.88;55.89;96496.84;6944788;28;20647;-88
2023/11/03 19:12:13;;;;;;;5.73;4.47;;;;;;;12.89;56.05;96497.66;6944714;28;20194;-88
2023/11/03 19:15:35;;;;;;;5.77;3.30;;;;;;;12.99;56.29;96497.66;6941968;28;20231;-89
2023/11/03 19:18:57;;;;;;;3.80;3.30;;;;;;;12.75;55.51;96470.38;6939655;28;20230;-89
2023/11/03 19:22:20;;;;;;;4.23;3.50;;;;;;;13.14;56.07;96525.44;6943851;28;20205;-90
2023/11/03 19:25:42;;;;;;;3.63;3.27;;;;;;;13.05;56.52;96540.63;6944447;28;20203;-91
2023/11/03 19:29:03;;;;;;;5.87;3.57;;;;;;;13.07;56.66;96533.06;6946852;28;20685;-88
2023/11/03 19:32:25;;;;;;;5.60;5.10;;;;;;;12.76;55.73;96461.16;6950714;28;20207;-89
2023/11/03 19:35:48;;;;;;;4.07;3.33;;;;;;;12.95;56.24;96539.81;6960287;28;20316;-86
2023/11/03 19:39:12;;;;;;;4.37;3.27;;;;;;;12.50;55.75;96427.22;6949268;28;20259;-87
2023/11/03 19:47:04;;;;;;;3.50;3.20;;;;;;;12.62;54.59;96443.13;6888781;28;20219;-87
2023/11/03 19:50:26;;;;;;;5.67;3.40;;;;;;;12.70;55.17;96507.44;6916231;28;20279;-85
2023/11/03 19:53:48;;;;;;;4.57;3.77;;;;;;;12.85;56.00;96554.16;6929013;28;20280;-87
2023/11/03 19:57:11;;;;;;;5.80;3.40;;;;;;;12.25;56.05;96466.97;6943292;28;20206;-88
2023/11/03 20:00:33;;;;;;;4.30;3.90;;;;;;;12.61;55.99;96522.56;6943845;28;20587;-88
2023/11/03 20:03:55;;;;;;;8.70;4.53;;;;;;;12.89;55.88;96535.50;6925022;28;20246;-89
2023/11/03 20:07:32;;;;;;;;;;;;;;;;;;;;;
2023/11/03 20:11:09;;;;;;;7.00;4.73;;;;;;;12.77;55.55;96546.63;6941101;28;20209;-87
2023/11/03 20:14:32;;;;;;;8.03;4.13;;;;;;;12.80;55.93;96562.28;6942063;28;20258;-88
2023/11/03 20:17:56;;;;;;;5.60;3.73;;;;;;;12.49;55.79;96522.06;6943866;28;20308;-89
2023/11/03 20:21:29;;;;;;;4.13;3.30;;;;;;;12.88;54.84;96566.34;6943577;28;20218;-90
2023/11/03 20:24:51;;;;;;;5.67;5.17;;;;;;;12.54;55.07;96530.16;6942619;28;20358;-90
2023/11/03 20:32:43;;;;;;;3.77;3.40;;;;;;;12.17;55.52;96497.25;6943284;28;20187;-88
2023/11/03 20:36:22;;;;;;;3.00;2.70;;;;;;;11.53;55.22;96407.84;6942650;28;20209;-88
2023/11/03 20:39:46;;;;;;;5.23;3.27;;;;;;;11.93;55.12;96493.47;6943425;28;20226;-87
2023/11/03 20:43:18;;;;;;;4.37;3.27;;;;;;;12.26;55.12;96519.91;6941747;28;20214;-87